createdAt,value
2023-04-04T00:02:11.747Z,7.43
2023-04-04T00:04:42.102Z,11.20
2023-04-04T00:07:10.763Z,12.40
2023-04-04T00:09:39.302Z,14.43
2023-04-04T00:12:07.885Z,15.97
2023-04-04T00:14:36.494Z,14.50
2023-04-04T00:17:05.632Z,14.30
2023-04-04T00:19:34.164Z,25.10
2023-04-04T00:22:04.141Z,31.27
2023-04-04T00:24:37.504Z,26.60
2023-04-04T00:27:09.619Z,14.47
2023-04-04T00:29:38.876Z,13.97
2023-04-04T00:32:07.542Z,15.33
2023-04-04T00:34:41.790Z,16.27
2023-04-04T00:37:13.402Z,12.70
2023-04-04T00:39:42.110Z,18.63
2023-04-04T00:42:10.719Z,17.17
2023-04-04T00:44:39.462Z,21.40
2023-04-04T00:47:08.006Z,22.57
2023-04-04T00:49:37.965Z,24.47
2023-04-04T00:52:15.094Z,22.67
2023-04-04T00:54:49.303Z,20.67
2023-04-04T00:57:30.149Z,17.67
2023-04-04T00:59:59.737Z,11.87
2023-04-04T01:02:28.323Z,6.80
2023-04-04T01:04:57.398Z,7.03
2023-04-04T01:07:27.503Z,7.50
2023-04-04T01:09:58.480Z,12.27
2023-04-04T01:12:27.527Z,17.47
2023-04-04T01:14:56.989Z,20.53
2023-04-04T01:17:32.159Z,22.07
2023-04-04T01:20:08.739Z,27.23
2023-04-04T01:22:40.644Z,27.30
2023-04-04T01:25:10.221Z,18.83
2023-04-04T01:27:41.018Z,15.20
2023-04-04T01:30:11.443Z,20.13
2023-04-04T01:32:46.201Z,12.33
2023-04-04T01:35:27.809Z,9.93
2023-04-04T01:38:16.990Z,8.93
2023-04-04T01:40:50.503Z,8.97
2023-04-04T01:43:21.330Z,9.67
2023-04-04T01:45:51.040Z,10.90
2023-04-04T01:48:21.662Z,11.10
2023-04-04T01:50:56.515Z,36.07
2023-04-04T01:53:25.185Z,43.53
2023-04-04T01:55:54.523Z,44.30
2023-04-04T01:58:24.692Z,52.13
2023-04-04T02:00:53.302Z,62.70
2023-04-04T02:03:21.878Z,81.50
2023-04-04T02:06:03.097Z,94.93
2023-04-04T02:08:55.728Z,68.37
2023-04-04T02:11:29.152Z,85.33
2023-04-04T02:14:09.167Z,67.57
2023-04-04T02:16:48.330Z,63.03
2023-04-04T02:19:17.170Z,20.53
2023-04-04T02:21:46.525Z,34.30
2023-04-04T02:24:18.931Z,27.93
2023-04-04T02:26:53.029Z,80.10
2023-04-04T02:29:30.186Z,61.20
2023-04-04T02:32:03.091Z,25.63
2023-04-04T02:34:33.304Z,11.43
2023-04-04T02:37:07.625Z,16.97
2023-04-04T02:39:36.653Z,33.17
2023-04-04T02:42:11.911Z,26.30
2023-04-04T02:44:42.870Z,25.70
2023-04-04T02:47:12.807Z,20.67
2023-04-04T02:49:41.636Z,7.32
2023-04-04T02:52:11.499Z,16.00
2023-04-04T02:54:40.404Z,9.60
2023-04-04T02:57:12.813Z,9.53
2023-04-04T02:59:42.835Z,8.80
2023-04-04T03:02:11.613Z,8.83
2023-04-04T03:04:40.241Z,7.37
2023-04-04T03:07:08.912Z,8.53
2023-04-04T03:09:37.635Z,7.23
2023-04-04T03:12:06.415Z,8.77
2023-04-04T03:14:34.940Z,8.30
2023-04-04T03:17:05.330Z,8.40
2023-04-04T03:19:34.359Z,8.53
2023-04-04T03:22:02.888Z,10.10
2023-04-04T03:24:31.602Z,9.50
2023-04-04T03:27:05.776Z,9.07
2023-04-04T03:29:34.248Z,9.50
2023-04-04T03:32:03.335Z,7.83
2023-04-04T03:34:33.427Z,7.57
2023-04-04T03:37:01.907Z,8.23
2023-04-04T03:39:30.957Z,19.07
2023-04-04T03:41:59.587Z,24.33
2023-04-04T03:44:28.377Z,20.27
2023-04-04T03:46:57.127Z,22.90
2023-04-04T03:49:25.848Z,21.00
2023-04-04T03:51:55.713Z,16.70
2023-04-04T03:54:24.548Z,20.67
2023-04-04T03:56:53.970Z,32.73
2023-04-04T03:59:23.163Z,27.73
2023-04-04T04:01:51.908Z,26.67
2023-04-04T04:04:20.635Z,22.83
2023-04-04T04:06:49.837Z,25.37
2023-04-04T04:09:19.919Z,25.37
2023-04-04T04:11:48.512Z,25.87
2023-04-04T04:14:17.047Z,21.10
2023-04-04T04:16:45.591Z,20.30
2023-04-04T04:19:14.186Z,22.20
2023-04-04T04:21:44.179Z,15.90
2023-04-04T04:24:12.832Z,17.07
2023-04-04T04:26:42.942Z,26.43
2023-04-04T04:29:11.814Z,28.10
2023-04-04T04:31:40.668Z,32.07
2023-04-04T04:34:10.869Z,18.90
2023-04-04T04:36:39.841Z,30.13
2023-04-04T04:39:08.803Z,24.17
2023-04-04T04:41:38.772Z,18.10
2023-04-04T04:44:08.963Z,19.70
2023-04-04T04:46:37.800Z,17.53
2023-04-04T04:49:06.846Z,16.57
2023-04-04T04:51:35.864Z,14.50
2023-04-04T04:54:05.306Z,21.33
2023-04-04T04:56:34.187Z,29.43
2023-04-04T04:59:02.937Z,26.77
2023-04-04T05:01:33.193Z,13.18
2023-04-04T05:04:02.335Z,22.47
2023-04-04T05:06:31.273Z,11.37
2023-04-04T05:09:00.008Z,8.93
2023-04-04T05:11:28.789Z,11.82
2023-04-04T05:13:57.614Z,8.33
2023-04-04T05:16:26.323Z,7.77
2023-04-04T05:18:56.412Z,9.10
2023-04-04T05:21:25.103Z,8.57
2023-04-04T05:23:53.841Z,8.63
2023-04-04T05:26:24.083Z,8.23
2023-04-04T05:28:52.851Z,8.63
2023-04-04T05:31:21.645Z,9.57
2023-04-04T05:33:50.481Z,9.07
2023-04-04T05:36:20.671Z,9.13
2023-04-04T05:38:49.700Z,9.17
2023-04-04T05:41:18.372Z,7.43
2023-04-04T05:43:47.717Z,6.73
2023-04-04T05:46:16.530Z,6.93
2023-04-04T05:48:45.238Z,6.30
2023-04-04T05:51:13.876Z,6.03
2023-04-04T05:53:45.820Z,5.50
2023-04-04T05:56:14.791Z,6.67
2023-04-04T05:58:44.409Z,6.07
2023-04-04T06:01:13.180Z,7.87
2023-04-04T06:03:41.895Z,6.53
2023-04-04T06:06:10.950Z,7.47
2023-04-04T06:08:52.449Z,8.57
2023-04-04T06:11:23.838Z,6.93
2023-04-04T06:13:53.201Z,22.23
2023-04-04T06:16:22.001Z,26.57
2023-04-04T06:18:50.689Z,21.03
2023-04-04T06:21:21.378Z,13.20
2023-04-04T06:23:50.074Z,11.73
2023-04-04T06:26:18.702Z,14.23
2023-04-04T06:28:52.080Z,11.17
2023-04-04T06:31:21.074Z,8.70
2023-04-04T06:33:49.826Z,10.13
2023-04-04T06:36:18.460Z,8.57
2023-04-04T06:38:47.200Z,7.87
2023-04-04T06:41:15.830Z,10.20
2023-04-04T06:43:44.338Z,6.97
2023-04-04T06:46:14.546Z,7.37
2023-04-04T06:48:43.608Z,9.57
2023-04-04T06:51:13.100Z,10.13
2023-04-04T06:53:41.736Z,13.83
2023-04-04T06:56:11.214Z,11.83
2023-04-04T06:58:39.845Z,11.30
2023-04-04T07:01:08.503Z,12.93
2023-04-04T07:03:38.652Z,15.43
2023-04-04T07:06:07.699Z,19.63
2023-04-04T07:08:37.071Z,20.20
2023-04-04T07:11:06.587Z,20.70
2023-04-04T07:13:35.746Z,20.77
2023-04-04T07:16:04.360Z,20.67
2023-04-04T07:18:32.873Z,17.97
2023-04-04T07:21:02.878Z,15.70
2023-04-04T07:23:31.487Z,19.60
2023-04-04T07:26:01.786Z,17.47
2023-04-04T07:28:30.428Z,15.30
2023-04-04T07:31:02.006Z,24.00
2023-04-04T07:33:30.644Z,37.13
2023-04-04T07:36:00.853Z,21.53
2023-04-04T07:38:31.382Z,34.40
2023-04-04T07:41:00.666Z,42.43
2023-04-04T07:43:30.598Z,39.57
2023-04-04T07:45:59.327Z,49.83
2023-04-04T07:48:29.929Z,47.57
2023-04-04T07:51:00.490Z,47.53
2023-04-04T07:53:30.892Z,53.00
2023-04-04T07:55:59.669Z,95.63
2023-04-04T07:58:28.345Z,110.40
2023-04-04T08:00:58.757Z,138.27
2023-04-04T08:03:27.942Z,116.10
2023-04-04T08:05:57.194Z,100.73
2023-04-04T08:08:26.201Z,92.00
2023-04-04T08:10:56.456Z,105.03
2023-04-04T08:13:25.064Z,100.23
2023-04-04T08:15:53.744Z,70.93
2023-04-04T08:18:22.532Z,86.87
2023-04-04T08:20:51.653Z,86.37
2023-04-04T08:23:20.361Z,78.63
2023-04-04T08:25:49.255Z,68.10
2023-04-04T08:28:19.339Z,65.07
2023-04-04T08:30:48.107Z,39.33
2023-04-04T08:33:17.489Z,38.93
2023-04-04T08:35:46.319Z,38.70
2023-04-04T08:38:15.208Z,35.23
2023-04-04T08:40:47.110Z,38.53
2023-04-04T08:43:17.226Z,39.50
2023-04-04T08:45:48.442Z,41.37
2023-04-04T08:48:19.203Z,31.00
2023-04-04T08:50:48.480Z,38.70
2023-04-04T08:53:18.829Z,39.47
2023-04-04T08:55:48.022Z,41.93
2023-04-04T08:58:17.623Z,49.97
2023-04-04T09:00:47.800Z,39.77
2023-04-04T09:03:23.406Z,47.97
2023-04-04T09:05:52.759Z,47.30
2023-04-04T09:08:21.907Z,34.30
2023-04-04T09:10:52.992Z,33.07
2023-04-04T09:13:22.289Z,47.73
2023-04-04T09:15:55.600Z,54.77
2023-04-04T09:18:27.096Z,52.07
2023-04-04T09:20:55.830Z,55.10
2023-04-04T09:23:25.615Z,48.50
2023-04-04T09:28:27.490Z,40.03
2023-04-04T09:30:57.823Z,52.13
2023-04-04T09:33:27.127Z,65.43
2023-04-04T09:35:59.559Z,54.53
2023-04-04T09:38:30.194Z,61.50
2023-04-04T09:40:59.423Z,67.47
2023-04-04T09:43:31.083Z,63.50
2023-04-04T09:46:03.881Z,53.53
2023-04-04T09:48:35.269Z,69.43
2023-04-04T09:51:08.453Z,2.10
2023-04-04T09:53:38.454Z,3.15
2023-04-04T09:56:08.490Z,6.97
2023-04-04T09:58:40.446Z,30.83
2023-04-04T10:01:15.541Z,109.23
2023-04-04T10:03:53.978Z,77.40
2023-04-04T10:06:24.464Z,81.07
2023-04-04T10:08:53.567Z,72.30
2023-04-04T10:11:33.827Z,58.10
2023-04-04T10:14:14.651Z,47.07
2023-04-04T10:16:58.937Z,47.00
2023-04-04T10:19:28.436Z,3.40
2023-04-04T10:21:57.355Z,11.93
2023-04-04T10:24:26.018Z,104.17
2023-04-04T10:27:01.556Z,2.97
2023-04-04T10:29:33.009Z,34.83
2023-04-04T10:32:09.849Z,92.30
2023-04-04T10:34:45.146Z,83.17
2023-04-04T10:37:17.590Z,86.70
2023-04-04T10:39:53.964Z,99.80
2023-04-04T10:42:24.408Z,2.50
2023-04-04T10:44:56.186Z,36.50
2023-04-04T10:47:35.889Z,90.40
2023-04-04T10:50:07.921Z,91.57
2023-04-04T10:52:41.514Z,82.20
2023-04-04T10:55:15.380Z,76.67
2023-04-04T10:57:47.893Z,86.57
2023-04-04T11:00:21.049Z,69.73
2023-04-04T11:03:25.005Z,83.27
2023-04-04T11:06:00.919Z,53.37
2023-04-04T11:08:33.543Z,81.30
2023-04-04T11:11:09.711Z,58.03
2023-04-04T11:14:03.470Z,56.17
2023-04-04T11:16:47.939Z,55.10
2023-04-04T11:19:20.189Z,1.95
2023-04-04T11:21:53.500Z,7.57
2023-04-04T11:24:22.880Z,66.33
2023-04-04T11:26:51.690Z,118.33
2023-04-04T11:29:45.323Z,65.53
2023-04-04T11:32:29.407Z,99.63
2023-04-04T11:35:00.930Z,77.53
2023-04-04T11:37:37.173Z,109.57
2023-04-04T11:40:14.795Z,92.47
2023-04-04T11:42:45.410Z,104.73
2023-04-04T11:45:21.923Z,89.90
2023-04-04T11:47:51.872Z,98.37
2023-04-04T11:50:24.813Z,122.40
2023-04-04T11:52:57.003Z,132.50
2023-04-04T11:55:28.001Z,99.50
2023-04-04T11:58:07.490Z,103.20
2023-04-04T12:00:40.327Z,91.03
2023-04-04T12:03:12.054Z,114.90
2023-04-04T12:05:45.362Z,97.53
2023-04-04T12:08:19.330Z,90.80
2023-04-04T12:10:49.363Z,114.47
2023-04-04T12:13:20.733Z,125.13
2023-04-04T12:15:52.013Z,124.03
2023-04-04T12:18:24.251Z,111.77
2023-04-04T12:20:55.329Z,128.03
2023-04-04T12:23:27.758Z,134.83
2023-04-04T12:25:58.983Z,111.07
2023-04-04T12:28:31.656Z,140.77
2023-04-04T12:31:05.845Z,133.13
2023-04-04T12:33:42.234Z,113.87
2023-04-04T12:36:14.163Z,99.10
2023-04-04T12:39:00.158Z,112.33
2023-04-04T12:41:29.869Z,103.33
2023-04-04T12:44:07.930Z,114.30
2023-04-04T12:46:44.461Z,107.73
2023-04-04T12:49:16.047Z,85.23
2023-04-04T12:51:48.520Z,85.23
2023-04-04T12:54:32.372Z,74.77
2023-04-04T12:57:07.382Z,71.80
2023-04-04T12:59:38.273Z,76.30
2023-04-04T13:02:14.535Z,65.60
2023-04-04T13:04:48.375Z,52.27
2023-04-04T13:07:58.363Z,45.77
2023-04-04T13:10:29.892Z,44.73
2023-04-04T13:13:01.204Z,46.30
2023-04-04T13:15:55.456Z,44.33
2023-04-04T13:18:40.076Z,47.97
2023-04-04T13:21:13.650Z,54.00
2023-04-04T13:23:43.476Z,77.20
2023-04-04T13:26:14.140Z,89.50
2023-04-04T13:28:43.449Z,111.33
2023-04-04T13:31:13.912Z,119.63
2023-04-04T13:33:43.200Z,118.63
2023-04-04T13:36:14.796Z,101.07
2023-04-04T13:38:44.881Z,95.70
2023-04-04T13:41:18.231Z,95.47
2023-04-04T13:43:47.645Z,93.67
2023-04-04T13:46:17.931Z,103.00
2023-04-04T13:48:47.040Z,99.70
2023-04-04T13:51:19.028Z,88.13
2023-04-04T13:53:49.410Z,98.37
2023-04-04T13:56:20.529Z,116.33
2023-04-04T13:58:51.160Z,91.80
2023-04-04T14:01:20.356Z,103.03
2023-04-04T14:03:49.828Z,95.93
2023-04-04T14:06:19.610Z,115.77
2023-04-04T14:08:48.616Z,86.57
2023-04-04T14:11:19.240Z,76.10
2023-04-04T14:13:48.552Z,74.37
2023-04-04T14:16:17.928Z,91.07
2023-04-04T14:18:46.853Z,78.50
2023-04-04T14:21:16.043Z,122.53
2023-04-04T14:23:44.913Z,97.40
2023-04-04T14:26:13.957Z,97.37
2023-04-04T14:28:44.178Z,97.30
2023-04-04T14:31:13.016Z,80.13
2023-04-04T14:33:49.180Z,100.67
2023-04-04T14:36:19.359Z,96.33
2023-04-04T14:38:48.047Z,91.97
2023-04-04T14:41:17.138Z,107.40
2023-04-04T14:43:47.270Z,93.40
2023-04-04T14:46:16.114Z,89.47
2023-04-04T14:48:48.306Z,91.63
2023-04-04T14:51:19.783Z,67.73
2023-04-04T14:53:49.150Z,61.73
2023-04-04T14:56:17.845Z,59.80
2023-04-04T14:58:49.068Z,44.40
2023-04-04T15:01:18.150Z,44.13
2023-04-04T15:03:46.866Z,37.47
2023-04-04T15:06:15.540Z,62.40
2023-04-04T15:08:44.215Z,59.63
2023-04-04T15:11:13.426Z,62.10
2023-04-04T15:13:45.734Z,67.93
2023-04-04T15:16:18.475Z,65.13
2023-04-04T15:18:50.650Z,51.73
2023-04-04T15:21:19.411Z,65.03
2023-04-04T15:23:48.020Z,62.00
2023-04-04T15:26:17.014Z,68.93
2023-04-04T15:28:46.657Z,71.83
2023-04-04T15:31:16.850Z,83.27
2023-04-04T15:33:46.553Z,118.50
2023-04-04T15:36:15.486Z,64.57
2023-04-04T15:38:44.300Z,48.10
2023-04-04T15:41:13.181Z,40.27
2023-04-04T15:43:41.973Z,55.83
2023-04-04T15:46:10.999Z,43.63
2023-04-04T15:48:41.032Z,61.70
2023-04-04T15:51:10.061Z,54.57
2023-04-04T15:53:39.234Z,65.40
2023-04-04T15:56:08.164Z,59.27
2023-04-04T15:58:39.584Z,57.30
2023-04-04T16:01:08.904Z,57.77
2023-04-04T16:03:37.762Z,60.93
2023-04-04T16:06:13.254Z,66.83
2023-04-04T16:08:43.897Z,53.63
2023-04-04T16:11:12.878Z,73.50
2023-04-04T16:13:41.608Z,49.80
2023-04-04T16:16:10.326Z,43.27
2023-04-04T16:18:39.308Z,47.23
2023-04-04T16:21:10.169Z,44.27
2023-04-04T16:23:39.230Z,63.20
2023-04-04T16:26:09.651Z,61.37
2023-04-04T16:28:38.928Z,53.57
2023-04-04T16:31:08.142Z,53.47
2023-04-04T16:33:37.260Z,49.40
2023-04-04T16:36:06.805Z,38.30
2023-04-04T16:38:37.094Z,41.67
2023-04-04T16:41:07.086Z,53.97
2023-04-04T16:43:35.847Z,61.37
2023-04-04T16:46:15.999Z,110.77
2023-04-04T16:48:44.839Z,58.23
2023-04-04T16:51:13.637Z,63.30
2023-04-04T16:53:43.860Z,63.67
2023-04-04T16:56:12.807Z,69.87
2023-04-04T16:58:43.135Z,50.83
2023-04-04T17:01:14.636Z,72.17
2023-04-04T17:03:43.687Z,53.23
2023-04-04T17:06:12.506Z,51.50
2023-04-04T17:08:45.259Z,68.10
2023-04-04T17:11:14.488Z,73.20
2023-04-04T17:13:43.310Z,62.83
2023-04-04T17:16:11.906Z,71.53
2023-04-04T17:18:41.033Z,73.63
2023-04-04T17:21:09.662Z,63.83
2023-04-04T17:23:38.477Z,58.47
2023-04-04T17:26:08.424Z,59.77
2023-04-04T17:28:36.980Z,61.23
2023-04-04T17:31:05.888Z,68.80
2023-04-04T17:33:34.505Z,66.03
2023-04-04T17:36:04.179Z,74.60
2023-04-04T17:38:32.845Z,71.60
2023-04-04T17:41:04.310Z,64.50
2023-04-04T17:43:34.676Z,54.07
2023-04-04T17:46:06.546Z,61.83
2023-04-04T17:48:37.025Z,63.53
2023-04-04T17:51:07.849Z,43.57
2023-04-04T17:53:37.553Z,51.47
2023-04-04T17:56:06.673Z,58.03
2023-04-04T17:58:37.021Z,60.57
2023-04-04T18:01:06.619Z,20.13
2023-04-04T18:03:35.436Z,29.20
2023-04-04T18:06:04.480Z,39.97
2023-04-04T18:08:33.065Z,36.67
2023-04-04T18:11:02.018Z,34.40
2023-04-04T18:13:31.029Z,34.13
2023-04-04T18:16:02.853Z,40.20
2023-04-04T18:18:31.734Z,42.10
2023-04-04T18:21:03.246Z,45.80
2023-04-04T18:23:32.177Z,41.17
2023-04-04T18:26:01.867Z,48.10
2023-04-04T18:28:30.551Z,46.20
2023-04-04T18:31:01.683Z,55.03
2023-04-04T18:33:30.316Z,46.00
2023-04-04T18:36:00.287Z,40.20
2023-04-04T18:38:29.019Z,40.37
2023-04-04T18:40:58.131Z,39.40
2023-04-04T18:43:27.830Z,38.30
2023-04-04T18:46:04.113Z,41.60
2023-04-04T18:48:43.782Z,42.53
2023-04-04T18:51:12.635Z,40.30
2023-04-04T18:53:41.222Z,43.60
2023-04-04T18:56:09.865Z,48.67
2023-04-04T18:58:38.597Z,35.30
2023-04-04T19:01:08.530Z,40.03
2023-04-04T19:03:47.461Z,37.70
2023-04-04T19:06:16.577Z,27.53
2023-04-04T19:08:46.118Z,30.40
2023-04-04T19:11:15.938Z,32.30
2023-04-04T19:13:44.632Z,33.60
2023-04-04T19:16:14.871Z,35.23
2023-04-04T19:18:43.843Z,25.87
2023-04-04T19:21:12.481Z,31.93
2023-04-04T19:23:41.138Z,37.70
2023-04-04T19:26:09.823Z,39.47
2023-04-04T19:28:40.441Z,36.10
2023-04-04T19:31:11.330Z,38.53
2023-04-04T19:33:41.635Z,33.83
2023-04-04T19:36:16.021Z,32.60
2023-04-04T19:38:45.598Z,29.67
2023-04-04T19:41:31.199Z,36.17
2023-04-04T19:43:59.911Z,30.53
2023-04-04T19:46:29.689Z,31.40
2023-04-04T19:49:00.399Z,27.83
2023-04-04T19:51:50.048Z,26.97
2023-04-04T19:54:23.513Z,31.30
2023-04-04T19:56:53.857Z,28.30
2023-04-04T19:59:56.957Z,30.23
2023-04-04T20:02:53.810Z,8.35
2023-04-04T20:05:57.704Z,43.37
2023-04-04T20:08:45.364Z,7.85
2023-04-04T20:11:14.583Z,45.13
2023-04-04T20:13:43.867Z,49.37
2023-04-04T20:16:13.998Z,54.97
2023-04-04T20:18:44.927Z,62.80
2023-04-04T20:21:15.889Z,57.80
2023-04-04T20:23:48.190Z,62.43
2023-04-04T20:26:47.076Z,61.83
2023-04-04T20:29:17.837Z,59.70
2023-04-04T20:31:51.521Z,56.67
2023-04-04T20:34:41.984Z,57.53
2023-04-04T20:37:17.826Z,39.60
2023-04-04T20:40:00.754Z,68.60
2023-04-04T20:42:46.184Z,49.40
2023-04-04T20:45:47.129Z,40.37
2023-04-04T20:48:42.389Z,32.77
2023-04-04T20:51:23.848Z,37.67
2023-04-04T20:53:53.741Z,48.60
2023-04-04T20:56:59.200Z,38.30
2023-04-04T20:59:53.322Z,29.13
2023-04-04T21:02:26.133Z,32.27
2023-04-04T21:04:54.764Z,31.97
2023-04-04T21:07:44.374Z,26.13
2023-04-04T21:10:34.568Z,22.13
2023-04-04T21:13:13.193Z,19.57
2023-04-04T21:15:42.796Z,21.00
2023-04-04T21:18:12.808Z,21.53
2023-04-04T21:21:13.378Z,26.07
2023-04-04T21:23:49.146Z,17.87
2023-04-04T21:26:48.328Z,37.70
2023-04-04T21:29:30.887Z,25.93
2023-04-04T21:32:05.154Z,25.10
2023-04-04T21:34:37.761Z,24.77
2023-04-04T21:37:07.581Z,25.20
2023-04-04T21:39:50.219Z,29.07
2023-04-04T21:42:21.360Z,23.20
2023-04-04T21:44:51.606Z,22.90
2023-04-04T21:47:20.205Z,19.43
2023-04-04T21:49:48.792Z,21.83
2023-04-04T21:52:17.480Z,18.60
2023-04-04T21:54:46.251Z,16.87
2023-04-04T21:57:14.800Z,17.53
2023-04-04T21:59:43.444Z,16.87
2023-04-04T22:02:13.633Z,17.33
2023-04-04T22:04:42.372Z,16.73
2023-04-04T22:07:11.343Z,18.60
2023-04-04T22:09:43.556Z,27.87
2023-04-04T22:12:16.211Z,40.87
2023-04-04T22:14:45.686Z,48.93
2023-04-04T22:17:23.047Z,55.97
2023-04-04T22:19:59.190Z,81.97
2023-04-04T22:22:29.941Z,85.57
2023-04-04T22:25:06.828Z,85.07
2023-04-04T22:27:39.396Z,71.50
2023-04-04T22:30:09.775Z,60.17
2023-04-04T22:32:44.588Z,54.87
2023-04-04T22:35:17.625Z,42.40
2023-04-04T22:37:49.397Z,40.97
2023-04-04T22:40:19.621Z,37.07
2023-04-04T22:42:50.893Z,33.07
2023-04-04T22:45:21.441Z,28.27
2023-04-04T22:48:06.306Z,28.47
2023-04-04T22:50:51.084Z,23.70
2023-04-04T22:53:25.037Z,22.93
2023-04-04T22:56:01.159Z,22.93
2023-04-04T22:58:33.772Z,23.13
2023-04-04T23:01:06.483Z,22.10
2023-04-04T23:03:40.365Z,22.70
2023-04-04T23:06:09.258Z,22.97
2023-04-04T23:08:44.141Z,25.60
2023-04-04T23:11:15.709Z,25.50
2023-04-04T23:13:44.561Z,25.90
2023-04-04T23:16:13.172Z,27.87
2023-04-04T23:18:43.160Z,25.87
2023-04-04T23:21:11.901Z,25.17
2023-04-04T23:23:40.482Z,24.80
2023-04-04T23:26:09.049Z,24.80
2023-04-04T23:28:37.578Z,23.17
2023-04-04T23:31:06.577Z,22.03
2023-04-04T23:33:35.377Z,22.03
2023-04-04T23:36:05.638Z,24.03
2023-04-04T23:38:34.241Z,25.83
2023-04-04T23:41:02.776Z,27.53
2023-04-04T23:43:31.488Z,22.90
2023-04-04T23:46:00.656Z,20.60
2023-04-04T23:48:29.294Z,20.03
2023-04-04T23:50:57.864Z,17.73
2023-04-04T23:53:28.040Z,20.53
2023-04-04T23:55:56.730Z,14.87
2023-04-04T23:58:26.741Z,15.90
